ADDS METAR Data INFO
IDs: Format: Raw Decoded Include TAF

Data at: 1749 UTC 24 Mar 2017

METAR for:KDRT (Del Rio Intl, TX, US)
Text:KDRT 241653Z AUTO 28013G18KT 10SM CLR 26/M04 A2998 RMK AO2 SLP136 T02561044
Temperature: 25.6°C ( 78°F)
Dewpoint: -4.4°C ( 24°F) [RH = 13%]
Pressure (altimeter):29.98 inches Hg (1015.3 mb) [Sea level pressure: 1013.6 mb]
Winds:from the W (280 degrees) at 15 MPH (13 knots; 6.7 m/s) gusting to 21 MPH (18 knots; 9.3 m/s)
Visibility:10 or more sm (16+ km)
Ceiling:at least 12,000 feet AGL
Clouds:sky clear below 12,000 feet AGL
QC Flag:automated observation with no human augmentation


Page loaded:  17:49 UTC  |   10:49 AM Pacific  |   11:49 AM Mountain  |   12:49 PM Central  |   01:49 PM Eastern

 

ADVISORIES

FORECASTS

FORECASTS

OBSERVATIONS

USER TOOLS

ABOUT US